McHenry, Mississippi
Current Conditions -  °F | °C
As of 8:53 PM on Tuesday 21 Oct 2014 (Local Time) from KGPT Reporting Station
Clear Clear  
Wind Chill: 17°   Ceiling: Unl
Heat Index: 17°   Visibility: 10mi
Dew Point: 14°   Wind: 3mph
Humidity: 86%   Direction: 320°NW
Pressure: 30.01"   Gusts: NA
Location:  30.71°N, 89.14°W
Report Text: KGPT 220153Z 32003KT 10SM CLR 17/14 A3001 RMK AO2 SLP161 T01670144
Loading
Personal Weather Stations






























Interactive Weather Map
Tropical Storm Tracking
New forecast layout! Learn more

10-Day Weather Forecast

Advertisements
Track Severe Weather on mobile